Time;durP1;ratioP1;P1;durP2;ratioP2;P2;SDS_P1;SDS_P2;PMS_P1;PMS_P2;Temp;Humidity;BMP_temperature;BMP_pressure;BME280_temperature;BME280_humidity;BME280_pressure;Samples;Min_cycle;Max_cycle;Signal;HPM_P1;HPM_P2
2022/11/25 00:01:10;;;;;;;17.43;4.23;;;;;;;;;;5016831;28;20037;-77
2022/11/25 00:03:37;;;;;;;17.17;4.87;;;;;;;;;;5017881;28;20030;-77
2022/11/25 00:06:17;;;;;;;18.43;4.77;;;;;;;;;;5031125;28;20105;-78
2022/11/25 00:08:43;;;;;;;18.17;5.20;;;;;;;;;;5017656;28;20026;-78
2022/11/25 00:11:10;;;;;;;18.47;5.73;;;;;;;;;;5022304;28;20026;-78
2022/11/25 00:13:36;;;;;;;21.33;5.30;;;;;;;;;;5017283;28;20049;-77
2022/11/25 00:16:03;;;;;;;18.83;4.27;;;;;;;;;;5017995;28;20068;-77
2022/11/25 00:18:29;;;;;;;18.60;4.80;;;;;;;;;;5021247;28;20026;-77
2022/11/25 00:20:55;;;;;;;17.27;5.07;;;;;;;;;;5011694;28;20366;-78
2022/11/25 00:23:21;;;;;;;17.60;4.57;;;;;;;;;;5018061;28;20042;-77
2022/11/25 00:25:47;;;;;;;19.77;4.30;;;;;;;;;;5017621;28;20026;-77
2022/11/25 00:28:13;;;;;;;24.23;4.77;;;;;;;;;;5017924;28;20037;-77
2022/11/25 00:30:39;;;;;;;21.43;4.60;;;;;;;;;;5018615;28;20111;-78
2022/11/25 00:33:05;;;;;;;35.17;5.70;;;;;;;;;;5024327;28;20040;-77
2022/11/25 00:35:34;;;;;;;21.80;5.73;;;;;;;;;;5027342;28;20037;-78
2022/11/25 00:38:00;;;;;;;16.27;3.97;;;;;;;;;;5017753;28;20037;-78
2022/11/25 00:40:26;;;;;;;19.40;4.50;;;;;;;;;;5022721;28;20084;-78
2022/11/25 00:45:36;;;;;;;16.23;4.63;;;;;;;;;;5018075;28;20113;-78
2022/11/25 00:48:03;;;;;;;16.23;3.50;;;;;;;;;;5016713;28;20022;-77
2022/11/25 00:50:29;;;;;;;21.10;4.50;;;;;;;;;;5012803;28;20021;-76
2022/11/25 00:52:55;;;;;;;17.67;4.87;;;;;;;;;;5015253;28;20037;-78
2022/11/25 00:55:21;;;;;;;17.80;4.30;;;;;;;;;;5018017;28;20041;-77
2022/11/25 00:57:47;;;;;;;20.23;3.50;;;;;;;;;;5020465;28;20032;-78
2022/11/25 01:00:13;;;;;;;17.30;4.67;;;;;;;;;;5017178;28;20030;-77
2022/11/25 01:02:41;;;;;;;24.57;5.53;;;;;;;;;;5016979;28;20038;-78
2022/11/25 01:05:07;;;;;;;21.43;4.83;;;;;;;;;;5012665;28;20025;-78
2022/11/25 01:07:36;;;;;;;22.50;4.33;;;;;;;;;;5018675;28;20014;-77
2022/11/25 01:10:02;;;;;;;21.50;4.83;;;;;;;;;;5018423;28;20088;-76
2022/11/25 01:12:28;;;;;;;21.30;4.43;;;;;;;;;;5017304;28;20088;-78
2022/11/25 01:14:54;;;;;;;21.43;4.10;;;;;;;;;;5030581;28;20029;-78
2022/11/25 01:17:20;;;;;;;19.33;4.53;;;;;;;;;;5019073;28;20099;-78
2022/11/25 01:19:47;;;;;;;17.93;4.73;;;;;;;;;;5018506;28;20029;-77
2022/11/25 01:22:13;;;;;;;12.30;3.77;;;;;;;;;;5020787;28;20036;-77
2022/11/25 01:24:39;;;;;;;26.73;5.00;;;;;;;;;;5023252;28;20018;-78
2022/11/25 01:27:05;;;;;;;20.37;4.33;;;;;;;;;;5025331;28;20022;-77
2022/11/25 01:29:31;;;;;;;17.27;4.97;;;;;;;;;;5014375;28;20065;-77
2022/11/25 01:31:57;;;;;;;16.97;4.40;;;;;;;;;;5020258;28;20084;-77
2022/11/25 01:34:27;;;;;;;19.57;4.10;;;;;;;;;;5014194;28;20033;-77
2022/11/25 01:36:53;;;;;;;18.43;4.80;;;;;;;;;;5016615;28;20037;-76
2022/11/25 01:39:20;;;;;;;15.93;3.97;;;;;;;;;;5026489;28;20022;-77
2022/11/25 01:41:47;;;;;;;18.07;3.80;;;;;;;;;;5035037;28;20124;-77
2022/11/25 01:44:13;;;;;;;13.63;3.73;;;;;;;;;;5034229;28;20057;-77
2022/11/25 01:46:54;;;;;;;17.70;5.03;;;;;;;;;;5018729;28;20026;-76
2022/11/25 01:49:32;;;;;;;13.33;3.93;;;;;;;;;;5015900;28;20445;-77
2022/11/25 01:52:01;;;;;;;16.97;4.80;;;;;;;;;;5030832;28;20068;-78
2022/11/25 01:54:29;;;;;;;19.67;5.23;;;;;;;;;;5029831;28;20040;-76
2022/11/25 01:56:59;;;;;;;14.63;4.60;;;;;;;;;;5026477;28;20038;-77
2022/11/25 01:59:25;;;;;;;19.50;4.97;;;;;;;;;;5027789;28;20022;-77
2022/11/25 02:01:52;;;;;;;18.17;4.30;;;;;;;;;;5023836;28;20034;-76
2022/11/25 02:04:18;;;;;;;14.80;4.37;;;;;;;;;;5014718;28;20029;-76
2022/11/25 02:06:47;;;;;;;14.83;4.57;;;;;;;;;;5015895;28;20030;-77
2022/11/25 02:09:14;;;;;;;14.93;4.00;;;;;;;;;;5013877;28;20037;-77
2022/11/25 02:11:42;;;;;;;17.67;4.20;;;;;;;;;;5014537;28;20034;-78
2022/11/25 02:14:09;;;;;;;17.83;4.50;;;;;;;;;;5029041;28;20037;-78
2022/11/25 02:16:35;;;;;;;21.57;4.90;;;;;;;;;;5018886;28;20053;-77
2022/11/25 02:19:02;;;;;;;16.00;4.00;;;;;;;;;;5014799;28;20482;-76
2022/11/25 02:21:36;;;;;;;18.43;4.37;;;;;;;;;;5025788;28;20037;-76
2022/11/25 02:24:17;;;;;;;15.43;3.90;;;;;;;;;;5029393;28;20026;-77
2022/11/25 02:26:44;;;;;;;16.23;4.70;;;;;;;;;;5027333;28;20025;-77
2022/11/25 02:29:12;;;;;;;23.33;4.00;;;;;;;;;;5028564;28;20033;-77
2022/11/25 02:31:38;;;;;;;16.83;3.80;;;;;;;;;;5031702;28;20038;-78
2022/11/25 02:34:04;;;;;;;18.30;3.87;;;;;;;;;;5016607;28;20037;-77
2022/11/25 02:36:33;;;;;;;15.50;3.73;;;;;;;;;;5016388;28;20030;-76
2022/11/25 02:39:02;;;;;;;19.10;4.93;;;;;;;;;;5016170;28;20880;-77
2022/11/25 02:41:28;;;;;;;20.07;4.17;;;;;;;;;;5015909;28;20402;-77
2022/11/25 02:43:54;;;;;;;16.00;4.17;;;;;;;;;;5020675;28;20030;-77
2022/11/25 02:46:22;;;;;;;25.67;5.50;;;;;;;;;;5030467;28;20133;-77
2022/11/25 02:48:48;;;;;;;15.63;4.63;;;;;;;;;;5017776;28;20030;-78
2022/11/25 02:51:18;;;;;;;22.77;4.07;;;;;;;;;;5021298;28;20115;-77
2022/11/25 02:53:44;;;;;;;16.13;4.63;;;;;;;;;;5025198;28;20037;-77
2022/11/25 02:56:11;;;;;;;17.23;4.33;;;;;;;;;;5015716;28;20113;-77
2022/11/25 02:58:37;;;;;;;19.50;4.23;;;;;;;;;;5032530;28;20030;-78
2022/11/25 03:01:03;;;;;;;19.27;5.00;;;;;;;;;;5018412;28;20034;-76
2022/11/25 03:03:29;;;;;;;29.20;5.77;;;;;;;;;;5033521;28;20042;-78
2022/11/25 03:05:55;;;;;;;15.07;4.83;;;;;;;;;;5019122;28;20034;-77
2022/11/25 03:08:24;;;;;;;20.30;4.60;;;;;;;;;;5035052;28;20045;-76
2022/11/25 03:10:50;;;;;;;18.20;4.37;;;;;;;;;;5019601;28;20033;-78
2022/11/25 03:13:16;;;;;;;19.60;4.27;;;;;;;;;;5017549;28;20481;-77
2022/11/25 03:15:42;;;;;;;15.67;4.13;;;;;;;;;;5018668;28;20045;-77
2022/11/25 03:18:08;;;;;;;17.33;4.17;;;;;;;;;;5017275;28;20029;-76
2022/11/25 03:20:34;;;;;;;14.83;3.97;;;;;;;;;;5030001;28;20144;-77
2022/11/25 03:23:01;;;;;;;15.17;4.10;;;;;;;;;;5019550;28;20034;-76
2022/11/25 03:25:27;;;;;;;23.97;5.13;;;;;;;;;;5018334;28;20668;-77
2022/11/25 03:27:53;;;;;;;19.87;4.37;;;;;;;;;;5033671;28;20048;-77
2022/11/25 03:30:20;;;;;;;15.03;4.30;;;;;;;;;;5017342;28;20030;-77
2022/11/25 03:32:46;;;;;;;21.13;5.03;;;;;;;;;;5017946;28;20104;-76
2022/11/25 03:35:13;;;;;;;13.17;3.93;;;;;;;;;;5031199;28;20063;-77
2022/11/25 03:37:39;;;;;;;17.47;4.33;;;;;;;;;;5031824;28;20026;-78
2022/11/25 03:40:08;;;;;;;13.43;4.03;;;;;;;;;;5015308;28;20056;-78
2022/11/25 03:42:34;;;;;;;21.90;4.40;;;;;;;;;;5017916;28;20030;-78
2022/11/25 03:45:00;;;;;;;22.40;5.20;;;;;;;;;;5016254;28;20037;-78
2022/11/25 03:47:26;;;;;;;21.37;4.43;;;;;;;;;;5016101;28;20427;-78
2022/11/25 03:49:52;;;;;;;25.30;5.30;;;;;;;;;;5015945;28;20057;-77
2022/11/25 03:52:18;;;;;;;16.70;4.57;;;;;;;;;;5016020;28;20029;-78
2022/11/25 03:54:44;;;;;;;15.80;4.30;;;;;;;;;;5016353;28;20453;-77
2022/11/25 03:57:11;;;;;;;20.83;4.43;;;;;;;;;;5019789;28;20037;-77
2022/11/25 03:59:37;;;;;;;21.70;4.90;;;;;;;;;;5022100;28;20029;-77
2022/11/25 04:02:03;;;;;;;11.77;3.90;;;;;;;;;;5025128;28;20435;-77
2022/11/25 04:04:29;;;;;;;19.33;4.10;;;;;;;;;;5019298;28;20030;-78
2022/11/25 04:06:55;;;;;;;13.50;3.60;;;;;;;;;;5015357;28;20025;-77
2022/11/25 04:09:21;;;;;;;17.93;4.30;;;;;;;;;;5015900;28;20025;-78
2022/11/25 04:14:32;;;;;;;16.80;4.70;;;;;;;;;;5016405;28;20049;-78
2022/11/25 04:16:58;;;;;;;21.07;3.57;;;;;;;;;;5015639;28;20033;-78
2022/11/25 04:19:24;;;;;;;18.10;3.50;;;;;;;;;;5017582;28;20091;-78
2022/11/25 04:21:50;;;;;;;13.13;3.80;;;;;;;;;;5021888;28;20084;-77
2022/11/25 04:24:18;;;;;;;21.57;3.83;;;;;;;;;;5015979;28;20030;-77
2022/11/25 04:26:46;;;;;;;13.00;3.77;;;;;;;;;;5022860;28;20034;-78
2022/11/25 04:29:13;;;;;;;17.70;3.60;;;;;;;;;;5016774;28;20037;-78
2022/11/25 04:31:39;;;;;;;20.73;4.00;;;;;;;;;;5016568;28;20041;-78
2022/11/25 04:34:05;;;;;;;16.23;4.00;;;;;;;;;;5019685;28;20076;-78
2022/11/25 04:36:31;;;;;;;19.10;3.67;;;;;;;;;;5014726;28;20026;-78
2022/11/25 04:38:57;;;;;;;17.67;4.53;;;;;;;;;;5015567;28;20033;-77
2022/11/25 04:41:23;;;;;;;15.80;3.27;;;;;;;;;;5014636;28;20105;-78
2022/11/25 04:43:51;;;;;;;16.10;3.60;;;;;;;;;;5017315;28;20022;-77
2022/11/25 04:46:19;;;;;;;14.20;3.60;;;;;;;;;;5015113;28;20022;-78
2022/11/25 04:48:45;;;;;;;13.67;4.13;;;;;;;;;;5015448;28;20045;-77
2022/11/25 04:51:11;;;;;;;17.37;4.50;;;;;;;;;;5011698;28;20029;-78
2022/11/25 04:53:37;;;;;;;12.97;3.90;;;;;;;;;;5017073;28;20033;-78
2022/11/25 04:56:03;;;;;;;12.33;3.50;;;;;;;;;;5020486;28;20158;-78
2022/11/25 05:01:20;;;;;;;19.53;4.20;;;;;;;;;;5016688;28;20665;-78
2022/11/25 05:03:50;;;;;;;15.53;3.83;;;;;;;;;;5024480;28;20065;-77
2022/11/25 05:06:18;;;;;;;22.07;4.40;;;;;;;;;;5020617;28;20065;-78
2022/11/25 05:08:44;;;;;;;13.20;3.63;;;;;;;;;;5020160;28;20013;-78
2022/11/25 05:11:10;;;;;;;13.67;3.27;;;;;;;;;;5025235;28;20025;-78
2022/11/25 05:13:36;;;;;;;14.27;3.67;;;;;;;;;;5023136;28;20033;-78
2022/11/25 05:16:04;;;;;;;23.90;4.57;;;;;;;;;;5019517;28;20030;-77
2022/11/25 05:18:30;;;;;;;15.53;3.53;;;;;;;;;;5034002;28;20057;-77
2022/11/25 05:21:00;;;;;;;19.57;4.37;;;;;;;;;;5017707;28;20030;-77
2022/11/25 05:23:26;;;;;;;17.53;4.53;;;;;;;;;;5045241;28;20030;-78
2022/11/25 05:25:52;;;;;;;17.97;3.40;;;;;;;;;;5041219;28;20030;-78
2022/11/25 05:28:20;;;;;;;17.57;3.23;;;;;;;;;;5040753;28;20026;-78
2022/11/25 05:30:46;;;;;;;19.13;3.80;;;;;;;;;;5019592;28;20029;-78
2022/11/25 05:33:12;;;;;;;17.17;3.60;;;;;;;;;;5015831;28;20030;-78
2022/11/25 05:35:41;;;;;;;16.17;4.93;;;;;;;;;;5042149;28;20029;-78
2022/11/25 05:38:07;;;;;;;17.93;3.63;;;;;;;;;;5014219;28;20030;-77
2022/11/25 05:40:33;;;;;;;16.03;3.43;;;;;;;;;;5045100;28;20030;-77
2022/11/25 05:43:00;;;;;;;18.53;4.83;;;;;;;;;;5019573;28;20030;-78
2022/11/25 05:45:29;;;;;;;15.37;3.97;;;;;;;;;;5012869;28;20026;-78
2022/11/25 05:47:55;;;;;;;24.23;4.77;;;;;;;;;;5027122;28;20458;-78
2022/11/25 05:50:21;;;;;;;20.20;3.80;;;;;;;;;;5035747;28;20443;-78
2022/11/25 05:52:47;;;;;;;20.37;4.23;;;;;;;;;;5030337;28;20061;-78
2022/11/25 05:55:14;;;;;;;19.23;5.10;;;;;;;;;;5016803;28;20077;-78
2022/11/25 05:57:40;;;;;;;14.97;3.63;;;;;;;;;;5014585;28;20034;-78
2022/11/25 06:00:06;;;;;;;17.27;4.10;;;;;;;;;;5017863;28;20405;-77
2022/11/25 06:02:32;;;;;;;17.20;4.27;;;;;;;;;;5013183;28;20040;-77
2022/11/25 06:04:58;;;;;;;18.53;4.90;;;;;;;;;;5014603;28;20026;-78
2022/11/25 06:07:24;;;;;;;18.57;4.43;;;;;;;;;;5021778;28;20026;-78
2022/11/25 06:09:50;;;;;;;12.93;4.13;;;;;;;;;;5016307;28;20022;-78
2022/11/25 06:12:19;;;;;;;26.77;5.60;;;;;;;;;;5012150;28;20390;-78
2022/11/25 06:14:45;;;;;;;26.27;5.47;;;;;;;;;;5043552;28;20040;-77
2022/11/25 06:17:11;;;;;;;21.20;4.43;;;;;;;;;;5015356;28;20060;-78
2022/11/25 06:19:38;;;;;;;14.20;4.60;;;;;;;;;;5021414;28;20030;-78
2022/11/25 06:22:04;;;;;;;16.47;4.83;;;;;;;;;;5019024;28;20164;-77
2022/11/25 06:24:30;;;;;;;21.10;4.97;;;;;;;;;;5019330;28;20029;-77
2022/11/25 06:26:56;;;;;;;25.97;4.80;;;;;;;;;;5031536;28;20022;-77
2022/11/25 06:29:22;;;;;;;18.47;4.03;;;;;;;;;;5022081;28;20018;-77
2022/11/25 06:31:51;;;;;;;17.10;5.00;;;;;;;;;;5024476;28;20026;-76
2022/11/25 06:34:17;;;;;;;22.40;5.03;;;;;;;;;;5012147;28;20091;-77
2022/11/25 06:36:43;;;;;;;31.60;5.80;;;;;;;;;;5052446;28;20034;-77
2022/11/25 06:39:09;;;;;;;22.20;5.77;;;;;;;;;;5021855;28;20060;-78
2022/11/25 06:41:35;;;;;;;21.97;5.47;;;;;;;;;;5035404;28;20025;-77
2022/11/25 06:44:01;;;;;;;21.63;5.23;;;;;;;;;;5021753;28;20115;-77
2022/11/25 06:46:27;;;;;;;18.57;5.60;;;;;;;;;;5022570;28;20026;-78
2022/11/25 06:48:53;;;;;;;20.07;5.83;;;;;;;;;;5050271;28;20029;-77
2022/11/25 06:51:19;;;;;;;22.37;4.37;;;;;;;;;;5016548;28;20087;-77
2022/11/25 06:53:45;;;;;;;19.30;5.13;;;;;;;;;;5012296;28;20109;-77
2022/11/25 06:56:20;;;;;;;23.37;6.87;;;;;;;;;;5014173;28;20033;-76
2022/11/25 06:58:48;;;;;;;21.33;5.40;;;;;;;;;;5023613;28;20410;-78
2022/11/25 07:01:16;;;;;;;21.10;5.20;;;;;;;;;;5033276;28;20030;-76
2022/11/25 07:03:46;;;;;;;20.93;5.77;;;;;;;;;;5030397;28;20034;-78
2022/11/25 07:06:15;;;;;;;19.20;5.50;;;;;;;;;;5028348;28;20029;-77
2022/11/25 07:08:41;;;;;;;22.13;5.17;;;;;;;;;;5028145;28;20084;-78
2022/11/25 07:11:12;;;;;;;17.90;5.50;;;;;;;;;;5033179;28;20026;-77
2022/11/25 07:13:38;;;;;;;18.17;4.87;;;;;;;;;;5028421;28;20026;-78
2022/11/25 07:16:04;;;;;;;24.67;5.37;;;;;;;;;;5032844;28;20041;-76
2022/11/25 07:18:32;;;;;;;27.77;6.50;;;;;;;;;;5020044;28;20030;-77
2022/11/25 07:21:05;;;;;;;21.07;5.67;;;;;;;;;;5015656;28;20034;-78
2022/11/25 07:23:32;;;;;;;22.17;5.83;;;;;;;;;;5022830;28;20033;-77
2022/11/25 07:26:05;;;;;;;24.20;7.10;;;;;;;;;;5031593;28;20022;-77
2022/11/25 07:28:34;;;;;;;24.17;6.60;;;;;;;;;;5016562;28;20112;-77
2022/11/25 07:31:04;;;;;;;24.27;6.63;;;;;;;;;;5015350;28;20427;-77
2022/11/25 07:33:30;;;;;;;26.00;7.40;;;;;;;;;;5015408;28;20034;-78
2022/11/25 07:36:00;;;;;;;26.90;6.93;;;;;;;;;;5018118;28;20040;-77
2022/11/25 07:38:29;;;;;;;25.73;8.47;;;;;;;;;;5020534;28;20037;-75
2022/11/25 07:40:55;;;;;;;28.00;9.80;;;;;;;;;;5031764;28;20041;-76
2022/11/25 07:43:21;;;;;;;24.47;8.20;;;;;;;;;;5032853;28;20048;-76
2022/11/25 07:45:47;;;;;;;24.93;7.73;;;;;;;;;;5017895;28;20450;-76
2022/11/25 07:48:13;;;;;;;23.93;8.10;;;;;;;;;;5017680;28;20060;-78
2022/11/25 07:50:39;;;;;;;23.93;8.27;;;;;;;;;;5030016;28;20026;-78
2022/11/25 07:53:05;;;;;;;22.17;7.83;;;;;;;;;;5027198;28;20037;-77
2022/11/25 07:55:31;;;;;;;30.77;10.07;;;;;;;;;;5016447;28;20052;-77
2022/11/25 07:57:57;;;;;;;28.30;10.03;;;;;;;;;;5015515;28;20033;-77
2022/11/25 08:00:23;;;;;;;32.43;12.40;;;;;;;;;;5027011;28;20041;-76
2022/11/25 08:02:49;;;;;;;36.77;11.73;;;;;;;;;;5016449;28;20084;-76
2022/11/25 08:05:16;;;;;;;26.43;9.50;;;;;;;;;;5015587;28;20037;-77
2022/11/25 08:07:42;;;;;;;36.50;10.83;;;;;;;;;;5015719;28;20025;-78
2022/11/25 08:10:08;;;;;;;21.60;8.70;;;;;;;;;;5017639;28;20029;-76
2022/11/25 08:12:34;;;;;;;29.33;11.00;;;;;;;;;;5017369;28;21640;-77
2022/11/25 08:15:00;;;;;;;26.67;11.30;;;;;;;;;;5018492;28;20374;-76
2022/11/25 08:17:26;;;;;;;28.87;11.83;;;;;;;;;;5028715;28;20025;-76
2022/11/25 08:19:52;;;;;;;28.53;10.53;;;;;;;;;;5029102;28;20124;-78
2022/11/25 08:22:18;;;;;;;30.53;9.07;;;;;;;;;;5030919;28;20034;-77
2022/11/25 08:24:44;;;;;;;28.60;10.13;;;;;;;;;;5020561;28;20025;-77
2022/11/25 08:27:10;;;;;;;24.53;10.97;;;;;;;;;;5017914;28;20032;-77
2022/11/25 08:29:36;;;;;;;27.87;9.97;;;;;;;;;;5015305;28;20033;-77
2022/11/25 08:32:02;;;;;;;29.50;11.40;;;;;;;;;;5015293;28;20025;-77
2022/11/25 08:34:28;;;;;;;32.33;11.80;;;;;;;;;;5018669;28;20369;-77
2022/11/25 08:36:57;;;;;;;30.90;12.20;;;;;;;;;;5017381;28;20037;-76
2022/11/25 08:39:23;;;;;;;29.93;10.23;;;;;;;;;;5015409;28;21660;-77
2022/11/25 08:41:49;;;;;;;21.83;10.00;;;;;;;;;;5017026;28;20052;-76
2022/11/25 08:44:16;;;;;;;27.90;10.63;;;;;;;;;;5018055;28;20116;-78
2022/11/25 08:46:42;;;;;;;27.77;10.83;;;;;;;;;;5032202;28;20628;-77
2022/11/25 08:49:08;;;;;;;25.50;9.53;;;;;;;;;;5028527;28;20053;-78
2022/11/25 08:51:35;;;;;;;25.50;9.03;;;;;;;;;;5029936;28;20025;-78
2022/11/25 08:54:01;;;;;;;31.00;9.97;;;;;;;;;;5016388;28;20025;-77
2022/11/25 08:56:27;;;;;;;30.67;9.13;;;;;;;;;;5048726;28;20038;-77
2022/11/25 08:58:54;;;;;;;22.73;8.13;;;;;;;;;;5021388;28;20033;-76
2022/11/25 09:01:21;;;;;;;19.70;7.60;;;;;;;;;;5019573;28;20041;-78
2022/11/25 09:03:48;;;;;;;20.37;8.27;;;;;;;;;;5017993;28;20044;-77
2022/11/25 09:06:15;;;;;;;29.13;8.43;;;;;;;;;;5020475;28;20032;-76
2022/11/25 09:08:42;;;;;;;22.27;7.60;;;;;;;;;;5026824;28;20169;-78
2022/11/25 09:11:08;;;;;;;19.13;7.20;;;;;;;;;;5030209;28;20065;-78
2022/11/25 09:13:35;;;;;;;26.10;7.47;;;;;;;;;;5015535;28;20061;-78
2022/11/25 09:16:01;;;;;;;16.37;6.13;;;;;;;;;;5033585;28;20083;-78
2022/11/25 09:18:29;;;;;;;16.20;5.77;;;;;;;;;;5051249;28;20645;-78
2022/11/25 09:20:55;;;;;;;20.73;6.47;;;;;;;;;;5047151;28;20033;-78
2022/11/25 09:23:22;;;;;;;16.40;6.90;;;;;;;;;;5016780;28;20408;-78
2022/11/25 09:25:52;;;;;;;16.10;6.80;;;;;;;;;;5016153;28;20366;-78
2022/11/25 09:28:18;;;;;;;15.63;5.80;;;;;;;;;;5048282;28;20030;-79
2022/11/25 09:30:44;;;;;;;12.53;3.90;;;;;;;;;;5027288;28;20022;-79
2022/11/25 09:33:10;;;;;;;11.03;3.53;;;;;;;;;;5016383;28;20104;-78
2022/11/25 09:35:36;;;;;;;9.27;2.40;;;;;;;;;;5015601;28;20088;-78
2022/11/25 09:38:02;;;;;;;8.97;2.50;;;;;;;;;;5042507;28;20034;-78
2022/11/25 09:40:28;;;;;;;9.23;2.70;;;;;;;;;;5013721;28;20040;-78
2022/11/25 09:48:53;;;;;;;15.23;2.73;;;;;;;;;;5013993;28;20441;-79
2022/11/25 09:51:25;;;;;;;10.73;2.57;;;;;;;;;;5014954;28;20026;-78
2022/11/25 09:53:53;;;;;;;9.88;2.25;;;;;;;;;;5014647;28;20088;-77
2022/11/25 09:56:29;;;;;;;10.37;2.60;;;;;;;;;;5004679;28;20029;-78
2022/11/25 09:59:14;;;;;;;11.23;2.67;;;;;;;;;;5025434;28;20356;-78
2022/11/25 10:01:48;;;;;;;9.63;2.67;;;;;;;;;;5017520;28;20025;-78
2022/11/25 10:04:22;;;;;;;9.13;2.10;;;;;;;;;;5018196;28;20446;-79
2022/11/25 10:06:51;;;;;;;7.30;1.70;;;;;;;;;;5017791;28;20028;-78
2022/11/25 10:09:23;;;;;;;10.53;2.10;;;;;;;;;;5035110;28;20033;-78
2022/11/25 10:11:50;;;;;;;9.83;2.10;;;;;;;;;;5018102;28;20080;-79
2022/11/25 10:14:25;;;;;;;9.07;2.57;;;;;;;;;;5017555;28;20014;-78
2022/11/25 10:16:56;;;;;;;14.97;2.40;;;;;;;;;;5019015;28;20037;-79
2022/11/25 10:19:37;;;;;;;10.80;1.90;;;;;;;;;;5017602;28;20018;-79
2022/11/25 10:22:27;;;;;;;10.13;2.20;;;;;;;;;;5032327;28;20033;-79
2022/11/25 10:24:56;;;;;;;9.53;2.33;;;;;;;;;;5020663;28;20038;-77
2022/11/25 10:27:29;;;;;;;9.50;2.00;;;;;;;;;;5027028;28;20026;-77
2022/11/25 10:30:04;;;;;;;7.23;2.07;;;;;;;;;;5017268;28;20034;-78
2022/11/25 10:32:36;;;;;;;14.13;2.97;;;;;;;;;;5033256;28;20030;-78
2022/11/25 10:35:09;;;;;;;12.07;2.58;;;;;;;;;;5045888;28;20048;-79
2022/11/25 10:37:40;;;;;;;17.40;2.60;;;;;;;;;;5017127;28;20026;-78
2022/11/25 10:40:07;;;;;;;11.67;2.47;;;;;;;;;;5029477;28;20029;-78
2022/11/25 10:42:35;;;;;;;15.10;2.83;;;;;;;;;;5015850;28;20026;-78
2022/11/25 10:45:07;;;;;;;9.00;2.10;;;;;;;;;;5022442;28;20365;-78
2022/11/25 10:47:53;;;;;;;12.07;2.45;;;;;;;;;;5017765;28;20014;-78
2022/11/25 10:50:25;;;;;;;11.43;2.77;;;;;;;;;;5014170;28;20116;-79
2022/11/25 10:52:53;;;;;;;6.77;2.43;;;;;;;;;;5029385;28;20026;-78
2022/11/25 10:55:27;;;;;;;9.27;1.93;;;;;;;;;;5039440;28;20033;-78
2022/11/25 10:57:53;;;;;;;8.53;2.60;;;;;;;;;;5016674;28;20026;-78
2022/11/25 11:00:28;;;;;;;10.33;2.17;;;;;;;;;;5030018;28;20034;-78
2022/11/25 11:02:55;;;;;;;10.80;2.27;;;;;;;;;;5047022;28;20390;-78
2022/11/25 11:05:27;;;;;;;10.50;3.13;;;;;;;;;;5030526;28;20053;-78
2022/11/25 11:08:09;;;;;;;17.85;2.78;;;;;;;;;;5026456;28;20032;-78
2022/11/25 11:10:35;;;;;;;12.47;2.60;;;;;;;;;;5046132;28;20047;-79
2022/11/25 11:13:05;;;;;;;52.20;4.07;;;;;;;;;;5009634;28;20027;-77
2022/11/25 11:15:40;;;;;;;17.50;2.93;;;;;;;;;;5040014;28;20029;-78
2022/11/25 11:18:25;;;;;;;8.83;2.93;;;;;;;;;;5012764;28;20017;-78
2022/11/25 11:20:53;;;;;;;13.40;3.03;;;;;;;;;;5017200;28;20030;-78
2022/11/25 11:23:19;;;;;;;12.33;2.60;;;;;;;;;;5021012;28;20127;-78
2022/11/25 11:25:59;;;;;;;15.23;4.20;;;;;;;;;;5030576;28;20019;-78
2022/11/25 11:28:32;;;;;;;18.87;3.70;;;;;;;;;;5009504;28;20045;-78
2022/11/25 11:30:58;;;;;;;14.43;3.90;;;;;;;;;;5032448;28;20492;-78
2022/11/25 11:33:30;;;;;;;18.30;3.97;;;;;;;;;;5023670;28;20022;-79
2022/11/25 11:36:14;;;;;;;18.88;3.08;;;;;;;;;;5021731;28;20327;-79
2022/11/25 11:38:49;;;;;;;15.10;3.37;;;;;;;;;;5015999;28;20060;-78
2022/11/25 11:41:38;;;;;;;17.43;3.50;;;;;;;;;;5015803;28;20447;-78
2022/11/25 11:44:07;;;;;;;12.77;3.33;;;;;;;;;;5032914;28;20057;-78
2022/11/25 11:46:41;;;;;;;22.43;3.50;;;;;;;;;;5015881;28;20455;-78
2022/11/25 11:49:19;;;;;;;18.97;3.53;;;;;;;;;;5030399;28;20018;-78
2022/11/25 11:51:57;;;;;;;16.63;3.30;;;;;;;;;;5031596;28;20091;-78
2022/11/25 11:54:32;;;;;;;17.53;3.87;;;;;;;;;;5015995;28;20034;-78
2022/11/25 11:57:11;;;;;;;21.50;3.63;;;;;;;;;;5016007;28;20358;-78
2022/11/25 11:59:41;;;;;;;19.40;3.27;;;;;;;;;;5043061;28;20033;-77
2022/11/25 12:02:25;;;;;;;16.73;3.43;;;;;;;;;;5015658;28;20362;-78
2022/11/25 12:05:15;;;;;;;14.53;4.00;;;;;;;;;;5027928;28;20034;-78
2022/11/25 12:08:00;;;;;;;21.90;3.67;;;;;;;;;;5003100;28;20040;-78
2022/11/25 12:10:41;;;;;;;15.33;3.17;;;;;;;;;;5018129;28;20022;-78
2022/11/25 12:13:13;;;;;;;18.40;3.70;;;;;;;;;;5025803;28;20037;-78
2022/11/25 12:15:52;;;;;;;22.13;3.85;;;;;;;;;;5014932;28;20026;-78
2022/11/25 12:18:33;;;;;;;18.80;4.70;;;;;;;;;;5015609;28;20044;-78
2022/11/25 12:21:04;;;;;;;16.73;3.63;;;;;;;;;;5028074;28;20026;-78
2022/11/25 12:23:53;;;;;;;16.60;3.47;;;;;;;;;;5012141;28;20080;-77
2022/11/25 12:26:27;;;;;;;20.17;3.23;;;;;;;;;;5023740;28;20144;-78
2022/11/25 12:28:57;;;;;;;18.20;4.27;;;;;;;;;;5040759;28;20026;-77
2022/11/25 12:31:29;;;;;;;17.23;3.20;;;;;;;;;;5026711;28;20060;-78
2022/11/25 12:34:13;;;;;;;19.67;3.87;;;;;;;;;;5016164;28;20470;-78
2022/11/25 12:36:40;;;;;;;17.10;3.63;;;;;;;;;;5030246;28;20073;-78
2022/11/25 12:39:15;;;;;;;26.17;3.83;;;;;;;;;;5020572;28;20025;-77
2022/11/25 12:41:42;;;;;;;17.73;3.60;;;;;;;;;;5020076;28;20108;-78
2022/11/25 12:44:17;;;;;;;18.30;4.13;;;;;;;;;;5022957;28;20040;-78
2022/11/25 12:46:48;;;;;;;23.70;4.60;;;;;;;;;;5014762;28;20018;-78
2022/11/25 12:49:17;;;;;;;23.37;4.57;;;;;;;;;;5016283;28;20022;-78
2022/11/25 12:51:49;;;;;;;14.10;3.47;;;;;;;;;;5013229;28;20022;-78
2022/11/25 12:54:16;;;;;;;26.58;4.20;;;;;;;;;;5014993;28;20501;-78
2022/11/25 12:56:51;;;;;;;10.90;2.87;;;;;;;;;;5014478;28;20028;-78
2022/11/25 12:59:40;;;;;;;18.00;3.53;;;;;;;;;;5045301;28;20077;-78
2022/11/25 13:02:27;;;;;;;16.37;3.73;;;;;;;;;;5009012;28;20091;-78
2022/11/25 13:05:14;;;;;;;8.97;2.60;;;;;;;;;;5014442;28;20084;-78
2022/11/25 13:07:43;;;;;;;16.17;2.77;;;;;;;;;;5015871;28;20386;-78
2022/11/25 13:10:27;;;;;;;17.97;3.47;;;;;;;;;;5015649;28;20025;-77
2022/11/25 13:13:06;;;;;;;16.50;2.90;;;;;;;;;;5031172;28;20017;-78
2022/11/25 13:15:43;;;;;;;15.97;2.07;;;;;;;;;;5008219;28;20030;-78
2022/11/25 13:18:12;;;;;;;14.63;2.77;;;;;;;;;;5029080;28;20046;-78
2022/11/25 13:20:42;;;;;;;11.97;2.37;;;;;;;;;;5031033;28;20056;-78
2022/11/25 13:23:21;;;;;;;13.63;3.40;;;;;;;;;;5018831;28;20036;-78
2022/11/25 13:25:48;;;;;;;14.77;2.70;;;;;;;;;;5014368;28;20052;-77
2022/11/25 13:28:25;;;;;;;18.87;2.93;;;;;;;;;;5015238;28;20033;-78
2022/11/25 13:30:52;;;;;;;12.83;3.27;;;;;;;;;;5026459;28;20038;-78
2022/11/25 13:33:18;;;;;;;16.43;3.23;;;;;;;;;;5047376;28;20033;-78
2022/11/25 13:35:45;;;;;;;9.07;2.40;;;;;;;;;;5007395;28;20049;-78
2022/11/25 13:38:29;;;;;;;11.13;2.87;;;;;;;;;;5047702;28;20037;-77
2022/11/25 13:41:03;;;;;;;11.97;3.30;;;;;;;;;;5017318;28;20033;-77
2022/11/25 13:43:31;;;;;;;10.57;2.23;;;;;;;;;;5047884;28;20030;-77
2022/11/25 13:45:57;;;;;;;16.57;3.27;;;;;;;;;;5016226;28;20026;-77
2022/11/25 13:48:28;;;;;;;7.90;2.13;;;;;;;;;;5013030;28;20025;-78
2022/11/25 13:51:13;;;;;;;13.30;3.00;;;;;;;;;;5028604;28;20030;-77
2022/11/25 13:53:39;;;;;;;11.97;2.57;;;;;;;;;;5025693;28;20571;-77
2022/11/25 13:56:34;;;;;;;11.80;2.17;;;;;;;;;;5014691;28;20034;-76
2022/11/25 13:59:10;;;;;;;13.33;2.50;;;;;;;;;;5008689;28;20053;-77
2022/11/25 14:01:37;;;;;;;10.27;2.60;;;;;;;;;;5029681;28;20029;-77
2022/11/25 14:04:05;;;;;;;10.33;3.33;;;;;;;;;;5012704;28;20091;-78
2022/11/25 14:06:38;;;;;;;8.53;1.97;;;;;;;;;;5026011;28;20112;-77
2022/11/25 14:09:10;;;;;;;13.17;2.33;;;;;;;;;;5014808;28;20060;-77
2022/11/25 14:11:54;;;;;;;14.13;3.00;;;;;;;;;;5017792;28;20029;-77
2022/11/25 14:14:39;;;;;;;15.43;2.27;;;;;;;;;;5014155;28;20057;-77
2022/11/25 14:17:30;;;;;;;15.70;2.67;;;;;;;;;;5014094;28;20022;-77
2022/11/25 14:20:17;;;;;;;16.13;3.17;;;;;;;;;;5025201;28;20041;-76
2022/11/25 14:22:49;;;;;;;18.37;3.20;;;;;;;;;;5028370;28;20033;-76
2022/11/25 14:25:15;;;;;;;14.85;4.72;;;;;;;;;;5027723;28;20022;-77
2022/11/25 14:27:45;;;;;;;26.90;5.67;;;;;;;;;;5024141;28;20026;-77
2022/11/25 14:30:12;;;;;;;12.17;3.07;;;;;;;;;;5025012;28;20331;-77
2022/11/25 14:32:41;;;;;;;10.13;2.47;;;;;;;;;;5027885;28;20046;-77
2022/11/25 14:35:19;;;;;;;12.03;2.40;;;;;;;;;;5045376;28;20064;-77
2022/11/25 14:37:49;;;;;;;10.90;2.53;;;;;;;;;;5048318;28;20026;-77
2022/11/25 14:40:19;;;;;;;13.67;2.70;;;;;;;;;;5015951;28;20029;-77
2022/11/25 14:42:50;;;;;;;15.00;2.83;;;;;;;;;;5017183;28;20033;-77
2022/11/25 14:45:28;;;;;;;12.07;2.10;;;;;;;;;;5016842;28;20026;-77
2022/11/25 14:47:57;;;;;;;10.57;2.57;;;;;;;;;;5015879;28;20056;-78
2022/11/25 14:50:23;;;;;;;16.27;3.00;;;;;;;;;;5028122;28;20864;-77
2022/11/25 14:52:52;;;;;;;17.13;2.77;;;;;;;;;;5016679;28;20108;-76
2022/11/25 14:55:27;;;;;;;18.47;3.47;;;;;;;;;;5017527;28;20608;-77
2022/11/25 14:57:53;;;;;;;18.33;3.07;;;;;;;;;;5017111;28;20064;-77